sensor_id;sensor_type;location;lat;lon;timestamp;pressure;altitude;pressure_sealevel;temperature
65738;BMP280;52478;51.844;6.582;2022-10-16T00:01:38;100745.59;;;23.06
65738;BMP280;52478;51.844;6.582;2022-10-16T00:04:05;100748.38;;;23.06
65738;BMP280;52478;51.844;6.582;2022-10-16T00:06:32;100740.13;;;23.00
65738;BMP280;52478;51.844;6.582;2022-10-16T00:08:58;100736.34;;;22.98
65738;BMP280;52478;51.844;6.582;2022-10-16T00:11:27;100744.09;;;23.05
65738;BMP280;52478;51.844;6.582;2022-10-16T00:13:56;100744.66;;;23.03
65738;BMP280;52478;51.844;6.582;2022-10-16T00:16:25;100758.06;;;23.05
65738;BMP280;52478;51.844;6.582;2022-10-16T00:18:52;100753.78;;;23.04
65738;BMP280;52478;51.844;6.582;2022-10-16T00:21:20;100756.56;;;23.04
65738;BMP280;52478;51.844;6.582;2022-10-16T00:23:50;100756.34;;;23.02
65738;BMP280;52478;51.844;6.582;2022-10-16T00:26:17;100757.84;;;23.03
65738;BMP280;52478;51.844;6.582;2022-10-16T00:28:44;100757.84;;;23.03
65738;BMP280;52478;51.844;6.582;2022-10-16T00:31:12;100757.84;;;23.03
65738;BMP280;52478;51.844;6.582;2022-10-16T00:33:40;100760.44;;;23.01
65738;BMP280;52478;51.844;6.582;2022-10-16T00:36:09;100747.00;;;22.99
65738;BMP280;52478;51.844;6.582;2022-10-16T00:38:36;100750.75;;;23.02
65738;BMP280;52478;51.844;6.582;2022-10-16T00:41:03;100743.69;;;23.01
65738;BMP280;52478;51.844;6.582;2022-10-16T00:43:36;100752.25;;;23.03
65738;BMP280;52478;51.844;6.582;2022-10-16T00:46:05;100749.28;;;23.01
65738;BMP280;52478;51.844;6.582;2022-10-16T00:48:32;100743.69;;;23.01
65738;BMP280;52478;51.844;6.582;2022-10-16T00:51:00;100749.28;;;23.01
65738;BMP280;52478;51.844;6.582;2022-10-16T00:53:27;100757.66;;;23.01
65738;BMP280;52478;51.844;6.582;2022-10-16T00:55:53;100754.84;;;23.01
65738;BMP280;52478;51.844;6.582;2022-10-16T00:58:20;100757.66;;;23.01
65738;BMP280;52478;51.844;6.582;2022-10-16T01:00:47;100753.34;;;23.00
65738;BMP280;52478;51.844;6.582;2022-10-16T01:03:25;100749.06;;;22.99
65738;BMP280;52478;51.844;6.582;2022-10-16T01:06:03;100747.00;;;22.99
65738;BMP280;52478;51.844;6.582;2022-10-16T01:08:36;100744.22;;;22.99
65738;BMP280;52478;51.844;6.582;2022-10-16T01:11:11;100756.16;;;23.00
65738;BMP280;52478;51.844;6.582;2022-10-16T01:13:42;100753.34;;;23.00
65738;BMP280;52478;51.844;6.582;2022-10-16T01:16:13;100746.25;;;22.99
65738;BMP280;52478;51.844;6.582;2022-10-16T01:18:44;100739.41;;;23.00
65738;BMP280;52478;51.844;6.582;2022-10-16T01:21:17;100751.84;;;22.99
65738;BMP280;52478;51.844;6.582;2022-10-16T01:23:51;100740.69;;;22.99
65738;BMP280;52478;51.844;6.582;2022-10-16T01:26:37;100731.31;;;22.96
65738;BMP280;52478;51.844;6.582;2022-10-16T01:29:15;100744.03;;;22.97
65738;BMP280;52478;51.844;6.582;2022-10-16T01:31:48;100747.53;;;22.98
65738;BMP280;52478;51.844;6.582;2022-10-16T01:34:20;100744.72;;;22.98
65738;BMP280;52478;51.844;6.582;2022-10-16T01:36:51;100737.13;;;22.98
65738;BMP280;52478;51.844;6.582;2022-10-16T01:39:21;100747.53;;;22.98
65738;BMP280;52478;51.844;6.582;2022-10-16T01:41:52;100744.72;;;22.98
65738;BMP280;52478;51.844;6.582;2022-10-16T01:44:25;100739.16;;;22.98
65738;BMP280;52478;51.844;6.582;2022-10-16T01:46:54;100742.72;;;22.98
65738;BMP280;52478;51.844;6.582;2022-10-16T01:49:23;100746.06;;;22.97
65738;BMP280;52478;51.844;6.582;2022-10-16T01:51:55;100744.72;;;22.98
65738;BMP280;52478;51.844;6.582;2022-10-16T01:54:23;100739.91;;;22.98
65738;BMP280;52478;51.844;6.582;2022-10-16T01:56:52;100732.09;;;22.97
65738;BMP280;52478;51.844;6.582;2022-10-16T01:59:23;100743.25;;;22.97
65738;BMP280;52478;51.844;6.582;2022-10-16T02:01:54;100742.50;;;22.96
65738;BMP280;52478;51.844;6.582;2022-10-16T02:04:36;100747.34;;;22.96
65738;BMP280;52478;51.844;6.582;2022-10-16T02:07:04;100743.78;;;22.95
65738;BMP280;52478;51.844;6.582;2022-10-16T02:09:32;100755.72;;;22.96
65738;BMP280;52478;51.844;6.582;2022-10-16T02:12:01;100750.13;;;22.96
65738;BMP280;52478;51.844;6.582;2022-10-16T02:14:31;100745.28;;;22.96
65738;BMP280;52478;51.844;6.582;2022-10-16T02:16:57;100741.00;;;22.95
65738;BMP280;52478;51.844;6.582;2022-10-16T02:19:24;100748.84;;;22.97
65738;BMP280;52478;51.844;6.582;2022-10-16T02:21:54;100754.44;;;22.97
65738;BMP280;52478;51.844;6.582;2022-10-16T02:24:26;100762.59;;;22.95
65738;BMP280;52478;51.844;6.582;2022-10-16T02:27:00;100758.50;;;22.96
65738;BMP280;52478;51.844;6.582;2022-10-16T02:29:32;100761.28;;;22.96
65738;BMP280;52478;51.844;6.582;2022-10-16T02:32:02;100758.50;;;22.96
65738;BMP280;52478;51.844;6.582;2022-10-16T02:34:32;100762.59;;;22.95
65738;BMP280;52478;51.844;6.582;2022-10-16T02:36:59;100759.03;;;22.94
65738;BMP280;52478;51.844;6.582;2022-10-16T02:39:28;100764.09;;;22.96
65738;BMP280;52478;51.844;6.582;2022-10-16T02:41:55;100762.59;;;22.95
65738;BMP280;52478;51.844;6.582;2022-10-16T02:44:21;100768.16;;;22.95
65738;BMP280;52478;51.844;6.582;2022-10-16T02:46:49;100754.94;;;22.95
65738;BMP280;52478;51.844;6.582;2022-10-16T02:49:15;100762.59;;;22.95
65738;BMP280;52478;51.844;6.582;2022-10-16T02:51:43;100765.38;;;22.95
65738;BMP280;52478;51.844;6.582;2022-10-16T02:54:09;100757.00;;;22.95
65738;BMP280;52478;51.844;6.582;2022-10-16T02:56:36;100750.66;;;22.94
65738;BMP280;52478;51.844;6.582;2022-10-16T02:59:03;100747.84;;;22.94
65738;BMP280;52478;51.844;6.582;2022-10-16T03:01:29;100749.19;;;22.93
65738;BMP280;52478;51.844;6.582;2022-10-16T03:03:57;100748.63;;;22.95
65738;BMP280;52478;51.844;6.582;2022-10-16T03:06:24;100752.69;;;22.94
65738;BMP280;52478;51.844;6.582;2022-10-16T03:08:50;100760.34;;;22.93
65738;BMP280;52478;51.844;6.582;2022-10-16T03:11:17;100757.56;;;22.93
65738;BMP280;52478;51.844;6.582;2022-10-16T03:13:43;100761.03;;;22.94
65738;BMP280;52478;51.844;6.582;2022-10-16T03:16:10;100754.00;;;22.93
65738;BMP280;52478;51.844;6.582;2022-10-16T03:18:36;100751.19;;;22.93
65738;BMP280;52478;51.844;6.582;2022-10-16T03:21:04;100751.19;;;22.93
65738;BMP280;52478;51.844;6.582;2022-10-16T03:23:30;100760.34;;;22.93
65738;BMP280;52478;51.844;6.582;2022-10-16T03:25:57;100754.75;;;22.93
65738;BMP280;52478;51.844;6.582;2022-10-16T03:28:24;100740.03;;;22.93
65738;BMP280;52478;51.844;6.582;2022-10-16T03:30:50;100746.91;;;22.92
65738;BMP280;52478;51.844;6.582;2022-10-16T03:33:17;100753.25;;;22.92
65738;BMP280;52478;51.844;6.582;2022-10-16T03:35:50;100745.63;;;22.93
65738;BMP280;52478;51.844;6.582;2022-10-16T03:38:19;100755.28;;;22.92
65738;BMP280;52478;51.844;6.582;2022-10-16T03:40:45;100770.00;;;22.92
65738;BMP280;52478;51.844;6.582;2022-10-16T03:43:12;100760.09;;;22.91
65738;BMP280;52478;51.844;6.582;2022-10-16T03:45:38;100758.06;;;22.92
65738;BMP280;52478;51.844;6.582;2022-10-16T03:48:05;100769.22;;;22.92
65738;BMP280;52478;51.844;6.582;2022-10-16T03:50:31;100785.97;;;22.92
65738;BMP280;52478;51.844;6.582;2022-10-16T03:52:58;100775.59;;;22.92
65738;BMP280;52478;51.844;6.582;2022-10-16T03:55:26;100760.88;;;22.92
65738;BMP280;52478;51.844;6.582;2022-10-16T03:57:52;100777.41;;;22.90
65738;BMP280;52478;51.844;6.582;2022-10-16T04:00:19;100773.31;;;22.91
65738;BMP280;52478;51.844;6.582;2022-10-16T04:02:46;100773.31;;;22.91
65738;BMP280;52478;51.844;6.582;2022-10-16T04:05:12;100783.72;;;22.90
65738;BMP280;52478;51.844;6.582;2022-10-16T04:07:38;100777.59;;;22.92
65738;BMP280;52478;51.844;6.582;2022-10-16T04:10:06;100768.47;;;22.91
65738;BMP280;52478;51.844;6.582;2022-10-16T04:12:34;100791.38;;;22.90
65738;BMP280;52478;51.844;6.582;2022-10-16T04:15:00;100789.28;;;22.90
65738;BMP280;52478;51.844;6.582;2022-10-16T04:17:27;100794.16;;;22.90
65738;BMP280;52478;51.844;6.582;2022-10-16T04:19:53;100799.75;;;22.90
65738;BMP280;52478;51.844;6.582;2022-10-16T04:22:19;100812.41;;;22.91
65738;BMP280;52478;51.844;6.582;2022-10-16T04:24:46;100817.97;;;22.91
65738;BMP280;52478;51.844;6.582;2022-10-16T04:27:12;100816.50;;;22.90
65738;BMP280;52478;51.844;6.582;2022-10-16T04:29:40;100812.41;;;22.91
65738;BMP280;52478;51.844;6.582;2022-10-16T04:32:08;100815.72;;;22.89
65738;BMP280;52478;51.844;6.582;2022-10-16T04:34:35;100816.50;;;22.90
65738;BMP280;52478;51.844;6.582;2022-10-16T04:37:03;100816.50;;;22.90
65738;BMP280;52478;51.844;6.582;2022-10-16T04:39:29;100822.09;;;22.90
65738;BMP280;52478;51.844;6.582;2022-10-16T04:41:56;100828.38;;;22.90
65738;BMP280;52478;51.844;6.582;2022-10-16T04:44:22;100824.09;;;22.89
65738;BMP280;52478;51.844;6.582;2022-10-16T04:46:51;100827.66;;;22.90
65738;BMP280;52478;51.844;6.582;2022-10-16T04:49:17;100826.91;;;22.89
65738;BMP280;52478;51.844;6.582;2022-10-16T04:51:44;100837.28;;;22.89
65738;BMP280;52478;51.844;6.582;2022-10-16T04:54:11;100834.50;;;22.89
65738;BMP280;52478;51.844;6.582;2022-10-16T04:56:37;100838.59;;;22.88
65738;BMP280;52478;51.844;6.582;2022-10-16T04:59:12;100838.84;;;22.90
65738;BMP280;52478;51.844;6.582;2022-10-16T05:01:38;100831.72;;;22.89
65738;BMP280;52478;51.844;6.582;2022-10-16T05:04:06;100836.56;;;22.88
65738;BMP280;52478;51.844;6.582;2022-10-16T05:06:33;100842.88;;;22.89
65738;BMP280;52478;51.844;6.582;2022-10-16T05:08:59;100840.09;;;22.89
65738;BMP280;52478;51.844;6.582;2022-10-16T05:11:26;100852.53;;;22.88
65738;BMP280;52478;51.844;6.582;2022-10-16T05:13:52;100855.34;;;22.88
65738;BMP280;52478;51.844;6.582;2022-10-16T05:16:19;100858.88;;;22.88
65738;BMP280;52478;51.844;6.582;2022-10-16T05:18:46;100870.78;;;22.89
65738;BMP280;52478;51.844;6.582;2022-10-16T05:21:13;100868.53;;;22.87
65738;BMP280;52478;51.844;6.582;2022-10-16T05:23:40;100875.63;;;22.88
65738;BMP280;52478;51.844;6.582;2022-10-16T05:26:07;100876.38;;;22.89
65738;BMP280;52478;51.844;6.582;2022-10-16T05:28:34;100867.03;;;22.86
65738;BMP280;52478;51.844;6.582;2022-10-16T05:31:04;100884.00;;;22.88
65738;BMP280;52478;51.844;6.582;2022-10-16T05:33:31;100881.97;;;22.89
65738;BMP280;52478;51.844;6.582;2022-10-16T05:36:00;100880.47;;;22.88
65738;BMP280;52478;51.844;6.582;2022-10-16T05:38:29;100876.16;;;22.87
65738;BMP280;52478;51.844;6.582;2022-10-16T05:40:56;100881.75;;;22.87
65738;BMP280;52478;51.844;6.582;2022-10-16T05:43:23;100884.53;;;22.87
65738;BMP280;52478;51.844;6.582;2022-10-16T05:45:55;100882.47;;;22.87
65738;BMP280;52478;51.844;6.582;2022-10-16T05:48:22;100871.44;;;22.82
65738;BMP280;52478;51.844;6.582;2022-10-16T05:50:56;100884.53;;;22.87
65738;BMP280;52478;51.844;6.582;2022-10-16T05:53:23;100892.91;;;22.87
65738;BMP280;52478;51.844;6.582;2022-10-16T05:55:53;100893.63;;;22.87
65738;BMP280;52478;51.844;6.582;2022-10-16T05:58:20;100901.28;;;22.87
65738;BMP280;52478;51.844;6.582;2022-10-16T06:00:52;100896.44;;;22.87
65738;BMP280;52478;51.844;6.582;2022-10-16T06:03:19;100904.06;;;22.87
65738;BMP280;52478;51.844;6.582;2022-10-16T06:05:45;100914.72;;;22.88
65738;BMP280;52478;51.844;6.582;2022-10-16T06:08:12;100915.25;;;22.87
65738;BMP280;52478;51.844;6.582;2022-10-16T06:10:38;100921.56;;;22.87
65738;BMP280;52478;51.844;6.582;2022-10-16T06:13:06;100917.28;;;22.86
65738;BMP280;52478;51.844;6.582;2022-10-16T06:15:33;100930.69;;;22.88
65738;BMP280;52478;51.844;6.582;2022-10-16T06:17:59;100931.47;;;22.88
65738;BMP280;52478;51.844;6.582;2022-10-16T06:20:26;100941.88;;;22.88
65738;BMP280;52478;51.844;6.582;2022-10-16T06:22:52;100947.44;;;22.88
65738;BMP280;52478;51.844;6.582;2022-10-16T06:25:19;100947.44;;;22.88
65738;BMP280;52478;51.844;6.582;2022-10-16T06:27:46;100953.81;;;22.88
65738;BMP280;52478;51.844;6.582;2022-10-16T06:30:14;100965.72;;;22.89
65738;BMP280;52478;51.844;6.582;2022-10-16T06:32:40;100970.56;;;22.88
65738;BMP280;52478;51.844;6.582;2022-10-16T06:35:07;100971.28;;;22.89
65738;BMP280;52478;51.844;6.582;2022-10-16T06:37:34;100982.47;;;22.89
65738;BMP280;52478;51.844;6.582;2022-10-16T06:40:00;100984.97;;;22.92
65738;BMP280;52478;51.844;6.582;2022-10-16T06:42:29;100989.16;;;22.99
65738;BMP280;52478;51.844;6.582;2022-10-16T06:44:56;100995.16;;;23.03
65738;BMP280;52478;51.844;6.582;2022-10-16T06:47:24;100996.13;;;23.05
65738;BMP280;52478;51.844;6.582;2022-10-16T06:49:50;100995.84;;;23.09
65738;BMP280;52478;51.844;6.582;2022-10-16T06:52:17;101007.00;;;23.09
65738;BMP280;52478;51.844;6.582;2022-10-16T06:54:43;101011.84;;;23.08
65738;BMP280;52478;51.844;6.582;2022-10-16T06:57:10;101008.06;;;23.06
65738;BMP280;52478;51.844;6.582;2022-10-16T06:59:36;101004.31;;;23.03
65738;BMP280;52478;51.844;6.582;2022-10-16T07:02:03;101012.81;;;23.11
65738;BMP280;52478;51.844;6.582;2022-10-16T07:04:30;101020.56;;;23.18
65738;BMP280;52478;51.844;6.582;2022-10-16T07:06:57;101028.13;;;23.23
65738;BMP280;52478;51.844;6.582;2022-10-16T07:09:26;101028.53;;;23.27
65738;BMP280;52478;51.844;6.582;2022-10-16T07:11:52;101033.06;;;23.29
65738;BMP280;52478;51.844;6.582;2022-10-16T07:14:21;101036.81;;;23.32
65738;BMP280;52478;51.844;6.582;2022-10-16T07:16:48;101046.16;;;23.34
65738;BMP280;52478;51.844;6.582;2022-10-16T07:19:14;101052.00;;;23.36
65738;BMP280;52478;51.844;6.582;2022-10-16T07:21:44;101046.09;;;23.40
65738;BMP280;52478;51.844;6.582;2022-10-16T07:24:12;101058.22;;;23.42
65738;BMP280;52478;51.844;6.582;2022-10-16T07:26:40;101051.56;;;23.45
65738;BMP280;52478;51.844;6.582;2022-10-16T07:29:11;101066.00;;;23.49
65738;BMP280;52478;51.844;6.582;2022-10-16T07:31:38;101067.69;;;23.52
65738;BMP280;52478;51.844;6.582;2022-10-16T07:34:05;101066.63;;;23.55
65738;BMP280;52478;51.844;6.582;2022-10-16T07:36:32;101067.63;;;23.58
65738;BMP280;52478;51.844;6.582;2022-10-16T07:38:59;101077.19;;;23.62
65738;BMP280;52478;51.844;6.582;2022-10-16T07:41:26;101076.66;;;23.64
65738;BMP280;52478;51.844;6.582;2022-10-16T07:43:54;101089.56;;;23.67
65738;BMP280;52478;51.844;6.582;2022-10-16T07:46:22;101082.13;;;23.69
65738;BMP280;52478;51.844;6.582;2022-10-16T07:48:49;101096.34;;;23.71
65738;BMP280;52478;51.844;6.582;2022-10-16T07:51:17;101100.13;;;23.74
65738;BMP280;52478;51.844;6.582;2022-10-16T07:53:44;101105.38;;;23.77
65738;BMP280;52478;51.844;6.582;2022-10-16T07:56:12;101104.28;;;23.80
65738;BMP280;52478;51.844;6.582;2022-10-16T07:58:39;101112.94;;;23.82
65738;BMP280;52478;51.844;6.582;2022-10-16T08:01:07;101107.53;;;23.84
65738;BMP280;52478;51.844;6.582;2022-10-16T08:03:34;101114.66;;;23.85
65738;BMP280;52478;51.844;6.582;2022-10-16T08:06:01;101110.47;;;23.79
65738;BMP280;52478;51.844;6.582;2022-10-16T08:08:28;101124.28;;;23.71
65738;BMP280;52478;51.844;6.582;2022-10-16T08:10:55;101124.44;;;23.79
65738;BMP280;52478;51.844;6.582;2022-10-16T08:13:22;101127.09;;;23.84
65738;BMP280;52478;51.844;6.582;2022-10-16T08:15:49;101124.75;;;23.88
65738;BMP280;52478;51.844;6.582;2022-10-16T08:18:16;101135.72;;;23.86
65738;BMP280;52478;51.844;6.582;2022-10-16T08:20:42;101131.75;;;23.95
65738;BMP280;52478;51.844;6.582;2022-10-16T08:23:10;101125.81;;;23.98
65738;BMP280;52478;51.844;6.582;2022-10-16T08:25:37;101138.53;;;23.99
65738;BMP280;52478;51.844;6.582;2022-10-16T08:28:04;101141.53;;;24.01
65738;BMP280;52478;51.844;6.582;2022-10-16T08:30:32;101150.88;;;24.04
65738;BMP280;52478;51.844;6.582;2022-10-16T08:33:00;101150.16;;;24.03
65738;BMP280;52478;51.844;6.582;2022-10-16T08:35:27;101161.34;;;24.03
65738;BMP280;52478;51.844;6.582;2022-10-16T08:37:54;101163.59;;;24.05
65738;BMP280;52478;51.844;6.582;2022-10-16T08:40:24;101158.22;;;24.07
65738;BMP280;52478;51.844;6.582;2022-10-16T08:43:00;101172.94;;;24.07
65738;BMP280;52478;51.844;6.582;2022-10-16T08:45:38;101183.59;;;24.09
65738;BMP280;52478;51.844;6.582;2022-10-16T08:48:17;101175.97;;;24.09
65738;BMP280;52478;51.844;6.582;2022-10-16T08:50:47;101181.75;;;24.11
65738;BMP280;52478;51.844;6.582;2022-10-16T08:53:18;101188.34;;;24.14
65738;BMP280;52478;51.844;6.582;2022-10-16T08:55:51;101183.50;;;24.14
65738;BMP280;52478;51.844;6.582;2022-10-16T08:58:18;101193.41;;;24.15
65738;BMP280;52478;51.844;6.582;2022-10-16T09:00:48;101189.63;;;24.13
65738;BMP280;52478;51.844;6.582;2022-10-16T09:03:31;101199.25;;;24.17
65738;BMP280;52478;51.844;6.582;2022-10-16T09:06:10;101194.34;;;24.18
65738;BMP280;52478;51.844;6.582;2022-10-16T09:08:46;101191.03;;;24.19
65738;BMP280;52478;51.844;6.582;2022-10-16T09:11:18;101189.75;;;24.20
65738;BMP280;52478;51.844;6.582;2022-10-16T09:13:53;101202.22;;;24.19
65738;BMP280;52478;51.844;6.582;2022-10-16T09:16:24;101203.00;;;24.20
65738;BMP280;52478;51.844;6.582;2022-10-16T09:18:58;101204.19;;;24.24
65738;BMP280;52478;51.844;6.582;2022-10-16T09:21:28;101205.47;;;24.23
65738;BMP280;52478;51.844;6.582;2022-10-16T09:23:59;101203.41;;;24.23
65738;BMP280;52478;51.844;6.582;2022-10-16T09:26:26;101212.81;;;24.26
65738;BMP280;52478;51.844;6.582;2022-10-16T09:28:53;101214.31;;;24.27
65738;BMP280;52478;51.844;6.582;2022-10-16T09:31:21;101224.72;;;24.26
65738;BMP280;52478;51.844;6.582;2022-10-16T09:33:53;101226.03;;;24.25
65738;BMP280;52478;51.844;6.582;2022-10-16T09:36:20;101230.31;;;24.26
65738;BMP280;52478;51.844;6.582;2022-10-16T09:38:48;101229.03;;;24.27
65738;BMP280;52478;51.844;6.582;2022-10-16T09:41:17;101221.38;;;24.28
65738;BMP280;52478;51.844;6.582;2022-10-16T09:43:51;101229.78;;;24.28
65738;BMP280;52478;51.844;6.582;2022-10-16T09:46:25;101228.50;;;24.29
65738;BMP280;52478;51.844;6.582;2022-10-16T09:48:56;101231.84;;;24.27
65738;BMP280;52478;51.844;6.582;2022-10-16T09:51:25;101236.38;;;24.30
65738;BMP280;52478;51.844;6.582;2022-10-16T09:53:55;101231.53;;;24.31
65738;BMP280;52478;51.844;6.582;2022-10-16T09:56:23;101243.25;;;24.29
65738;BMP280;52478;51.844;6.582;2022-10-16T09:58:51;101237.13;;;24.31
65738;BMP280;52478;51.844;6.582;2022-10-16T10:01:19;101238.63;;;24.32
65738;BMP280;52478;51.844;6.582;2022-10-16T10:03:46;101242.72;;;24.31
65738;BMP280;52478;51.844;6.582;2022-10-16T10:06:19;101245.53;;;24.31
65738;BMP280;52478;51.844;6.582;2022-10-16T10:08:59;101251.31;;;24.33
65738;BMP280;52478;51.844;6.582;2022-10-16T10:11:56;101252.84;;;24.34
65738;BMP280;52478;51.844;6.582;2022-10-16T10:14:26;101252.84;;;24.34
65738;BMP280;52478;51.844;6.582;2022-10-16T10:17:08;101240.13;;;24.33
65738;BMP280;52478;51.844;6.582;2022-10-16T10:19:38;101258.44;;;24.34
65738;BMP280;52478;51.844;6.582;2022-10-16T10:22:16;101258.44;;;24.34
65738;BMP280;52478;51.844;6.582;2022-10-16T10:24:44;101262.06;;;24.29
65738;BMP280;52478;51.844;6.582;2022-10-16T10:27:13;101265.84;;;24.31
65738;BMP280;52478;51.844;6.582;2022-10-16T10:29:49;101264.34;;;24.30
65738;BMP280;52478;51.844;6.582;2022-10-16T10:32:26;101267.47;;;24.27
65738;BMP280;52478;51.844;6.582;2022-10-16T10:35:05;101261.88;;;24.27
65738;BMP280;52478;51.844;6.582;2022-10-16T10:37:50;101262.06;;;24.29
65738;BMP280;52478;51.844;6.582;2022-10-16T10:40:28;101256.47;;;24.29
65738;BMP280;52478;51.844;6.582;2022-10-16T10:43:01;101256.72;;;24.31
65738;BMP280;52478;51.844;6.582;2022-10-16T10:45:38;101261.00;;;24.32
65738;BMP280;52478;51.844;6.582;2022-10-16T10:48:21;101273.19;;;24.34
65738;BMP280;52478;51.844;6.582;2022-10-16T10:50:53;101278.25;;;24.36
65738;BMP280;52478;51.844;6.582;2022-10-16T10:53:35;101279.50;;;24.35
65738;BMP280;52478;51.844;6.582;2022-10-16T10:56:14;101278.25;;;24.36
65738;BMP280;52478;51.844;6.582;2022-10-16T10:59:07;101274.16;;;24.37
65738;BMP280;52478;51.844;6.582;2022-10-16T11:01:40;101275.63;;;24.38
65738;BMP280;52478;51.844;6.582;2022-10-16T11:04:25;101277.16;;;24.39
65738;BMP280;52478;51.844;6.582;2022-10-16T11:06:57;101270.81;;;24.38
65738;BMP280;52478;51.844;6.582;2022-10-16T11:09:30;101272.31;;;24.39
65738;BMP280;52478;51.844;6.582;2022-10-16T11:12:01;101280.19;;;24.41
65738;BMP280;52478;51.844;6.582;2022-10-16T11:14:35;101281.69;;;24.42
65738;BMP280;52478;51.844;6.582;2022-10-16T11:17:08;101281.47;;;24.40
65738;BMP280;52478;51.844;6.582;2022-10-16T11:19:40;101272.53;;;24.41
65738;BMP280;52478;51.844;6.582;2022-10-16T11:22:12;101280.94;;;24.41
65738;BMP280;52478;51.844;6.582;2022-10-16T11:24:45;101291.38;;;24.41
65738;BMP280;52478;51.844;6.582;2022-10-16T11:27:17;101289.88;;;24.40
65738;BMP280;52478;51.844;6.582;2022-10-16T11:29:49;101284.28;;;24.40
65738;BMP280;52478;51.844;6.582;2022-10-16T11:32:22;101303.63;;;24.38
65738;BMP280;52478;51.844;6.582;2022-10-16T11:34:52;101293.94;;;24.39
65738;BMP280;52478;51.844;6.582;2022-10-16T11:37:26;101303.63;;;24.38
65738;BMP280;52478;51.844;6.582;2022-10-16T11:40:05;101290.94;;;24.37
65738;BMP280;52478;51.844;6.582;2022-10-16T11:42:40;101293.41;;;24.40
65738;BMP280;52478;51.844;6.582;2022-10-16T11:45:21;101286.53;;;24.41
65738;BMP280;52478;51.844;6.582;2022-10-16T11:47:55;101297.31;;;24.37
65738;BMP280;52478;51.844;6.582;2022-10-16T11:50:26;101295.47;;;24.40
65738;BMP280;52478;51.844;6.582;2022-10-16T11:52:58;101301.06;;;24.40
65738;BMP280;52478;51.844;6.582;2022-10-16T11:55:31;101298.47;;;24.42
65738;BMP280;52478;51.844;6.582;2022-10-16T11:58:02;101294.38;;;24.43
65738;BMP280;52478;51.844;6.582;2022-10-16T12:00:34;101295.16;;;24.43
65738;BMP280;52478;51.844;6.582;2022-10-16T12:03:11;101298.69;;;24.44
65738;BMP280;52478;51.844;6.582;2022-10-16T12:05:52;101307.09;;;24.44
65738;BMP280;52478;51.844;6.582;2022-10-16T12:08:21;101314.41;;;24.47
65738;BMP280;52478;51.844;6.582;2022-10-16T12:10:49;101312.91;;;24.46
65738;BMP280;52478;51.844;6.582;2022-10-16T12:13:32;101316.16;;;24.50
65738;BMP280;52478;51.844;6.582;2022-10-16T12:16:08;101324.75;;;24.52
65738;BMP280;52478;51.844;6.582;2022-10-16T12:18:46;101331.44;;;24.49
65738;BMP280;52478;51.844;6.582;2022-10-16T12:21:14;101326.25;;;24.53
65738;BMP280;52478;51.844;6.582;2022-10-16T12:23:47;101321.41;;;24.53
65738;BMP280;52478;51.844;6.582;2022-10-16T12:26:23;101318.09;;;24.55
65738;BMP280;52478;51.844;6.582;2022-10-16T12:28:50;101326.69;;;24.57
65738;BMP280;52478;51.844;6.582;2022-10-16T12:31:17;101321.09;;;24.57
65738;BMP280;52478;51.844;6.582;2022-10-16T12:33:56;101317.03;;;24.58
65738;BMP280;52478;51.844;6.582;2022-10-16T12:36:28;101316.47;;;24.59
65738;BMP280;52478;51.844;6.582;2022-10-16T12:38:55;101321.53;;;24.61
65738;BMP280;52478;51.844;6.582;2022-10-16T12:41:28;101320.22;;;24.62
65738;BMP280;52478;51.844;6.582;2022-10-16T12:43:55;101324.56;;;24.63
65738;BMP280;52478;51.844;6.582;2022-10-16T12:46:23;101326.06;;;24.64
65738;BMP280;52478;51.844;6.582;2022-10-16T12:48:50;101327.59;;;24.65
65738;BMP280;52478;51.844;6.582;2022-10-16T12:51:25;101330.91;;;24.63
65738;BMP280;52478;51.844;6.582;2022-10-16T12:54:00;101328.88;;;24.64
65738;BMP280;52478;51.844;6.582;2022-10-16T12:56:39;101330.56;;;24.67
65738;BMP280;52478;51.844;6.582;2022-10-16T12:59:14;101337.72;;;24.68
65738;BMP280;52478;51.844;6.582;2022-10-16T13:01:56;101337.91;;;24.70
65738;BMP280;52478;51.844;6.582;2022-10-16T13:04:35;101335.09;;;24.70
65738;BMP280;52478;51.844;6.582;2022-10-16T13:07:20;101337.38;;;24.71
65738;BMP280;52478;51.844;6.582;2022-10-16T13:09:58;101344.47;;;24.72
65738;BMP280;52478;51.844;6.582;2022-10-16T13:12:56;101345.25;;;24.73
65738;BMP280;52478;51.844;6.582;2022-10-16T13:15:32;101336.31;;;24.74
65738;BMP280;52478;51.844;6.582;2022-10-16T13:18:06;101332.94;;;24.76
65738;BMP280;52478;51.844;6.582;2022-10-16T13:20:53;101330.91;;;24.76
65738;BMP280;52478;51.844;6.582;2022-10-16T13:23:26;101336.00;;;24.78
65738;BMP280;52478;51.844;6.582;2022-10-16T13:26:05;101336.72;;;24.78
65738;BMP280;52478;51.844;6.582;2022-10-16T13:28:38;101340.28;;;24.79
65738;BMP280;52478;51.844;6.582;2022-10-16T13:31:13;101340.09;;;24.77
65738;BMP280;52478;51.844;6.582;2022-10-16T13:33:43;101340.81;;;24.77
65738;BMP280;52478;51.844;6.582;2022-10-16T13:36:19;101343.06;;;24.79
65738;BMP280;52478;51.844;6.582;2022-10-16T13:38:46;101346.13;;;24.81
65738;BMP280;52478;51.844;6.582;2022-10-16T13:41:15;101332.88;;;24.81
65738;BMP280;52478;51.844;6.582;2022-10-16T13:43:45;101337.91;;;24.83
65738;BMP280;52478;51.844;6.582;2022-10-16T13:46:15;101339.94;;;24.82
65738;BMP280;52478;51.844;6.582;2022-10-16T13:48:42;101337.41;;;24.84
65738;BMP280;52478;51.844;6.582;2022-10-16T13:51:14;101340.94;;;24.85
65738;BMP280;52478;51.844;6.582;2022-10-16T13:53:41;101343.97;;;24.87
65738;BMP280;52478;51.844;6.582;2022-10-16T13:56:11;101348.06;;;24.86
65738;BMP280;52478;51.844;6.582;2022-10-16T13:58:38;101344.69;;;24.87
65738;BMP280;52478;51.844;6.582;2022-10-16T14:01:20;101334.25;;;24.88
65738;BMP280;52478;51.844;6.582;2022-10-16T14:03:49;101334.25;;;24.88
65738;BMP280;52478;51.844;6.582;2022-10-16T14:06:19;101337.06;;;24.88
65738;BMP280;52478;51.844;6.582;2022-10-16T14:08:50;101341.34;;;24.89
65738;BMP280;52478;51.844;6.582;2022-10-16T14:11:21;101346.94;;;24.89
65738;BMP280;52478;51.844;6.582;2022-10-16T14:13:49;101349.22;;;24.90